Time;durP1;ratioP1;P1;durP2;ratioP2;P2;SDS_P1;SDS_P2;PMS_P1;PMS_P2;Temp;Humidity;BMP_temperature;BMP_pressure;BME280_temperature;BME280_humidity;BME280_pressure;Samples;Min_cycle;Max_cycle;Signal;HPM_P1;HPM_P2
2021/06/10 00:01:31;;;;;;;43.38;31.75;;;14.20;99.90;;;;;;4974906;28;20065;-81
2021/06/10 00:03:58;;;;;;;44.35;32.30;;;14.20;99.90;;;;;;4988521;28;20122;-79
2021/06/10 00:06:25;;;;;;;49.72;33.10;;;14.20;99.90;;;;;;4984445;28;20074;-81
2021/06/10 00:08:51;;;;;;;34.40;27.63;;;14.20;99.90;;;;;;4986612;28;20047;-81
2021/06/10 00:11:18;;;;;;;37.67;30.38;;;14.30;99.90;;;;;;4969957;28;20542;-82
2021/06/10 00:13:45;;;;;;;33.25;26.80;;;14.20;99.90;;;;;;4960450;28;20039;-82
2021/06/10 00:16:12;;;;;;;33.33;27.20;;;14.00;99.90;;;;;;4958208;28;20134;-82
2021/06/10 00:18:40;;;;;;;32.58;26.17;;;14.00;99.90;;;;;;4959833;28;20118;-82
2021/06/10 00:21:07;;;;;;;34.88;27.88;;;14.00;99.90;;;;;;4985542;28;20062;-82
2021/06/10 00:23:35;;;;;;;34.08;27.33;;;14.00;99.90;;;;;;5009015;28;20523;-82
2021/06/10 00:26:02;;;;;;;39.97;30.13;;;14.00;99.90;;;;;;4977182;28;20513;-82
2021/06/10 00:28:29;;;;;;;39.65;30.20;;;14.00;99.90;;;;;;4985253;28;20046;-81
2021/06/10 00:30:56;;;;;;;39.22;29.13;;;14.10;99.90;;;;;;4998007;28;20034;-81
2021/06/10 00:33:23;;;;;;;30.25;25.48;;;14.00;99.90;;;;;;4962356;28;20042;-82
2021/06/10 00:35:50;;;;;;;27.00;22.95;;;13.80;99.90;;;;;;4997096;28;20046;-83
2021/06/10 00:38:17;;;;;;;38.65;28.10;;;13.80;99.90;;;;;;4945963;28;20055;-82
2021/06/10 00:40:43;;;;;;;41.42;30.02;;;13.70;99.90;;;;;;4977922;28;20046;-83
2021/06/10 00:43:10;;;;;;;39.50;29.10;;;13.60;99.90;;;;;;4964469;28;20054;-81
2021/06/10 00:45:37;;;;;;;39.40;27.98;;;13.60;99.90;;;;;;4961149;28;20042;-82
2021/06/10 00:48:04;;;;;;;43.38;31.05;;;13.80;99.90;;;;;;4978098;28;20047;-82
2021/06/10 00:50:43;;;;;;;39.55;28.83;;;13.70;99.90;;;;;;4965324;28;20042;-81
2021/06/10 00:53:21;;;;;;;39.03;28.50;;;13.80;99.90;;;;;;4988392;28;20057;-82
2021/06/10 00:55:55;;;;;;;44.13;29.90;;;13.80;99.90;;;;;;4958870;28;20042;-81
2021/06/10 00:58:23;;;;;;;35.53;27.45;;;13.80;99.90;;;;;;4980274;28;20053;-81
2021/06/10 01:00:51;;;;;;;34.58;26.00;;;13.70;99.90;;;;;;5001387;28;20069;-83
2021/06/10 01:03:19;;;;;;;30.15;23.83;;;13.80;99.90;;;;;;4970275;28;20117;-81
2021/06/10 01:05:52;;;;;;;32.70;24.23;;;13.80;99.90;;;;;;4978775;28;20178;-82
2021/06/10 01:08:45;;;;;;;29.20;23.40;;;13.80;99.90;;;;;;4968520;28;20070;-82
2021/06/10 01:11:37;;;;;;;29.08;23.65;;;13.80;99.90;;;;;;4991040;28;20522;-81
2021/06/10 01:14:25;;;;;;;29.10;23.20;;;13.80;99.90;;;;;;4965017;28;20142;-81
2021/06/10 01:16:53;;;;;;;36.28;27.92;;;13.70;99.90;;;;;;4976007;28;20073;-80
2021/06/10 01:19:35;;;;;;;35.45;26.95;;;13.80;99.90;;;;;;4991312;28;20069;-82
2021/06/10 01:22:03;;;;;;;41.13;28.80;;;13.70;99.90;;;;;;4987474;28;20108;-82
2021/06/10 01:24:49;;;;;;;30.90;25.23;;;13.80;99.90;;;;;;4975081;28;20157;-81
2021/06/10 01:27:28;;;;;;;35.05;25.52;;;13.60;99.90;;;;;;4977954;28;20082;-83
2021/06/10 01:30:05;;;;;;;30.05;23.92;;;13.60;99.90;;;;;;5017000;28;20056;-82
2021/06/10 01:32:34;;;;;;;32.58;23.42;;;13.50;99.90;;;;;;5016369;28;20638;-83
2021/06/10 01:35:02;;;;;;;29.00;23.05;;;13.50;99.90;;;;;;4973918;28;20093;-83
2021/06/10 01:37:30;;;;;;;33.72;24.83;;;13.50;99.90;;;;;;4986946;28;20418;-83
2021/06/10 01:39:59;;;;;;;31.40;25.13;;;13.40;99.90;;;;;;4958312;28;20154;-83
2021/06/10 01:42:27;;;;;;;32.88;26.17;;;13.40;99.90;;;;;;4975164;28;20053;-82
2021/06/10 01:44:56;;;;;;;34.78;25.58;;;13.40;99.90;;;;;;4979451;28;20046;-81
2021/06/10 01:47:25;;;;;;;40.72;31.35;;;13.50;99.90;;;;;;4981411;28;20473;-84
2021/06/10 01:49:53;;;;;;;39.72;29.00;;;13.40;99.90;;;;;;4998743;28;20046;-83
2021/06/10 01:52:21;;;;;;;50.33;33.67;;;13.30;99.90;;;;;;5000136;28;20571;-82
2021/06/10 01:54:49;;;;;;;46.15;33.60;;;13.50;99.90;;;;;;4942142;28;20038;-82
2021/06/10 01:57:17;;;;;;;51.88;35.40;;;13.60;99.90;;;;;;4948528;28;20097;-82
2021/06/10 01:59:45;;;;;;;48.08;33.80;;;13.50;99.90;;;;;;4968112;28;20050;-80
2021/06/10 02:02:13;;;;;;;45.78;32.63;;;13.40;99.90;;;;;;4960563;28;20057;-83
2021/06/10 02:04:41;;;;;;;40.13;30.38;;;13.60;99.90;;;;;;4977239;28;20140;-83
2021/06/10 02:07:09;;;;;;;40.10;31.42;;;13.50;99.90;;;;;;4978306;28;20056;-84
2021/06/10 02:09:36;;;;;;;42.17;32.08;;;13.40;99.90;;;;;;4995412;28;20140;-82
2021/06/10 02:12:04;;;;;;;40.78;30.40;;;13.40;99.90;;;;;;4996363;28;20559;-82
2021/06/10 02:14:31;;;;;;;44.60;30.40;;;13.20;99.90;;;;;;5020549;28;20262;-83
2021/06/10 02:16:59;;;;;;;39.70;29.95;;;13.20;99.90;;;;;;4990497;28;20050;-80
2021/06/10 02:19:26;;;;;;;40.92;31.08;;;13.30;99.90;;;;;;4963405;28;20056;-80
2021/06/10 02:21:53;;;;;;;46.30;30.77;;;13.20;99.90;;;;;;4970642;28;20060;-82
2021/06/10 02:24:21;;;;;;;45.08;32.28;;;13.20;99.90;;;;;;4992118;28;20053;-80
2021/06/10 02:26:48;;;;;;;42.45;30.77;;;13.20;99.90;;;;;;4976728;28;20114;-81
2021/06/10 02:29:15;;;;;;;44.63;31.58;;;13.10;99.90;;;;;;4996217;28;20046;-79
2021/06/10 02:31:42;;;;;;;39.47;29.25;;;13.10;99.90;;;;;;4992215;28;20421;-82
2021/06/10 02:34:09;;;;;;;44.47;30.83;;;13.10;99.90;;;;;;4970144;28;20073;-82
2021/06/10 02:36:40;;;;;;;44.40;32.78;;;13.00;99.90;;;;;;4985147;28;20078;-83
2021/06/10 02:39:11;;;;;;;42.35;31.90;;;12.90;99.90;;;;;;4999055;28;20043;-83
2021/06/10 02:41:42;;;;;;;40.83;28.80;;;12.80;99.90;;;;;;4979198;28;20046;-83
2021/06/10 02:44:10;;;;;;;39.70;28.65;;;12.90;99.90;;;;;;4979011;28;20509;-81
2021/06/10 02:46:39;;;;;;;35.53;25.75;;;12.80;99.90;;;;;;4974344;28;20042;-83
2021/06/10 02:49:07;;;;;;;32.53;25.70;;;12.80;99.90;;;;;;4977152;28;20088;-80
2021/06/10 02:51:36;;;;;;;31.70;24.02;;;12.70;99.90;;;;;;4980510;28;20042;-81
2021/06/10 02:54:07;;;;;;;35.72;26.35;;;12.70;99.90;;;;;;4989571;28;20070;-83
2021/06/10 02:56:35;;;;;;;29.63;24.55;;;12.70;99.90;;;;;;4982164;28;20089;-82
2021/06/10 02:59:05;;;;;;;37.97;28.08;;;12.60;99.90;;;;;;4972130;28;20061;-81
2021/06/10 03:01:37;;;;;;;41.20;29.73;;;12.60;99.90;;;;;;4959925;28;20077;-81
2021/06/10 03:04:05;;;;;;;42.70;30.75;;;12.60;99.90;;;;;;4975071;28;20178;-82
2021/06/10 03:06:34;;;;;;;43.83;30.65;;;12.60;99.90;;;;;;4970753;28;20058;-81
2021/06/10 03:09:02;;;;;;;47.63;32.88;;;12.70;99.90;;;;;;4981973;28;20070;-81
2021/06/10 03:11:30;;;;;;;45.17;31.30;;;12.70;99.90;;;;;;4993733;28;20112;-82
2021/06/10 03:13:58;;;;;;;42.92;31.63;;;12.80;99.90;;;;;;4980460;28;20042;-82
2021/06/10 03:16:26;;;;;;;46.70;31.27;;;12.70;99.90;;;;;;4981525;28;20063;-82
2021/06/10 03:18:56;;;;;;;45.22;32.03;;;12.70;99.90;;;;;;4991747;28;20050;-83
2021/06/10 03:21:25;;;;;;;43.15;30.73;;;12.80;99.90;;;;;;5004046;28;20051;-82
2021/06/10 03:23:52;;;;;;;46.40;32.50;;;12.90;99.90;;;;;;4979922;28;20108;-83
2021/06/10 03:26:21;;;;;;;45.70;31.90;;;12.80;99.90;;;;;;4967801;28;20304;-82
2021/06/10 03:28:49;;;;;;;42.28;31.13;;;12.90;99.90;;;;;;4989181;28;20046;-82
2021/06/10 03:31:17;;;;;;;44.65;30.30;;;12.70;99.90;;;;;;4961574;28;20137;-82
2021/06/10 03:33:44;;;;;;;38.70;29.00;;;12.70;99.90;;;;;;4963903;28;20129;-84
2021/06/10 03:36:12;;;;;;;39.67;29.02;;;12.70;99.90;;;;;;4977921;28;20045;-82
2021/06/10 03:38:41;;;;;;;34.88;26.50;;;12.60;99.90;;;;;;4974672;28;20512;-83
2021/06/10 03:41:09;;;;;;;33.03;26.17;;;12.60;99.90;;;;;;4971711;28;20069;-82
2021/06/10 03:43:37;;;;;;;42.80;30.77;;;12.60;99.90;;;;;;4958128;28;20090;-82
2021/06/10 03:46:08;;;;;;;46.85;34.38;;;12.70;99.90;;;;;;4986195;28;20069;-80
2021/06/10 03:48:40;;;;;;;50.67;36.17;;;12.80;99.90;;;;;;4974803;28;20042;-79
2021/06/10 03:51:16;;;;;;;59.65;38.05;;;12.90;99.90;;;;;;4978892;28;20050;-81
2021/06/10 03:53:47;;;;;;;76.22;44.33;;;13.00;99.90;;;;;;4960047;28;20047;-82
2021/06/10 03:56:15;;;;;;;47.22;34.35;;;13.00;99.90;;;;;;4958786;28;20105;-83
2021/06/10 03:58:42;;;;;;;41.90;31.08;;;13.00;99.90;;;;;;4976230;28;20259;-83
2021/06/10 04:01:09;;;;;;;39.75;29.63;;;13.00;99.90;;;;;;4978760;28;20103;-84
2021/06/10 04:03:36;;;;;;;38.80;28.98;;;13.00;99.90;;;;;;4968827;28;20029;-85
2021/06/10 04:06:03;;;;;;;43.20;31.00;;;12.90;99.90;;;;;;5001681;28;20145;-83
2021/06/10 04:08:30;;;;;;;41.50;31.67;;;13.00;99.90;;;;;;4967318;28;20054;-82
2021/06/10 04:10:57;;;;;;;42.80;32.38;;;13.00;99.90;;;;;;4978839;28;20042;-81
2021/06/10 04:13:24;;;;;;;41.75;31.10;;;13.00;99.90;;;;;;4943448;28;20113;-80
2021/06/10 04:15:51;;;;;;;51.33;35.92;;;13.00;99.90;;;;;;4963335;28;20068;-82
2021/06/10 04:18:19;;;;;;;58.15;40.55;;;13.00;99.90;;;;;;4973735;28;20674;-80
2021/06/10 04:20:49;;;;;;;74.63;47.38;;;13.00;99.90;;;;;;5001149;28;20282;-81
2021/06/10 04:23:17;;;;;;;62.67;43.08;;;13.10;99.90;;;;;;4991307;28;20056;-81
2021/06/10 04:25:44;;;;;;;54.60;38.08;;;13.20;99.90;;;;;;4987673;28;20069;-82
2021/06/10 04:28:11;;;;;;;44.10;33.33;;;13.40;99.90;;;;;;4981955;28;20423;-81
2021/06/10 04:30:38;;;;;;;47.00;35.22;;;13.50;99.90;;;;;;5024543;28;20060;-82
2021/06/10 04:33:05;;;;;;;41.33;32.17;;;13.50;99.90;;;;;;5003068;28;20267;-81
2021/06/10 04:35:32;;;;;;;42.38;32.92;;;13.70;99.90;;;;;;5003987;28;20092;-83
2021/06/10 04:38:00;;;;;;;38.45;30.65;;;13.80;99.90;;;;;;5005461;28;20058;-83
2021/06/10 04:40:27;;;;;;;41.80;31.15;;;14.00;99.90;;;;;;4994950;28;20057;-83
2021/06/10 04:42:54;;;;;;;37.25;30.52;;;14.10;99.90;;;;;;4988519;28;20242;-82
2021/06/10 04:45:21;;;;;;;38.63;30.05;;;14.20;99.90;;;;;;4980887;28;20216;-83
2021/06/10 04:47:48;;;;;;;38.47;29.90;;;14.40;99.90;;;;;;4975357;28;20049;-81
2021/06/10 04:50:18;;;;;;;38.88;30.20;;;14.50;99.90;;;;;;4975597;28;20046;-80
2021/06/10 04:52:45;;;;;;;36.95;30.67;;;14.80;99.90;;;;;;4989434;28;20110;-81
2021/06/10 04:55:12;;;;;;;32.90;28.25;;;15.00;99.90;;;;;;4987063;28;20056;-81
2021/06/10 04:57:39;;;;;;;31.73;26.70;;;15.10;99.90;;;;;;4994371;28;20045;-81
2021/06/10 05:00:06;;;;;;;33.92;25.77;;;15.20;99.90;;;;;;4993182;28;20050;-82
2021/06/10 05:02:35;;;;;;;34.72;27.40;;;15.30;99.90;;;;;;4972359;28;20062;-84
2021/06/10 05:05:04;;;;;;;26.75;23.85;;;15.40;99.90;;;;;;4990782;28;20060;-83
2021/06/10 05:07:31;;;;;;;31.77;25.77;;;15.60;99.90;;;;;;5020133;28;20045;-83
2021/06/10 05:09:58;;;;;;;27.58;24.60;;;15.80;99.90;;;;;;4991417;28;20077;-80
2021/06/10 05:12:26;;;;;;;28.98;24.98;;;15.90;99.90;;;;;;4988577;28;20065;-83
2021/06/10 05:14:52;;;;;;;28.70;25.15;;;16.10;99.90;;;;;;4985687;28;20425;-85
2021/06/10 05:17:19;;;;;;;30.05;26.42;;;16.30;99.90;;;;;;4968737;28;20047;-81
2021/06/10 05:19:46;;;;;;;33.72;30.13;;;16.40;99.90;;;;;;4985353;28;20047;-83
2021/06/10 05:22:13;;;;;;;33.95;29.60;;;16.40;99.90;;;;;;4984152;28;20050;-85
2021/06/10 05:24:40;;;;;;;31.05;27.63;;;16.50;99.90;;;;;;5006022;28;20038;-85
2021/06/10 05:27:09;;;;;;;33.58;29.98;;;16.90;99.90;;;;;;5006963;28;20051;-84
2021/06/10 05:29:37;;;;;;;39.45;33.92;;;17.20;99.90;;;;;;4977650;28;20043;-80
2021/06/10 05:32:06;;;;;;;34.47;30.20;;;17.50;99.90;;;;;;5014843;28;20111;-85
2021/06/10 05:34:33;;;;;;;46.45;38.95;;;17.70;99.90;;;;;;4974745;28;20044;-80
2021/06/10 05:37:00;;;;;;;39.95;35.55;;;17.70;99.90;;;;;;4982800;28;20053;-84
2021/06/10 05:39:27;;;;;;;45.88;40.20;;;17.90;99.90;;;;;;4991142;28;20054;-81
2021/06/10 05:41:55;;;;;;;54.58;43.97;;;17.70;99.90;;;;;;5008346;28;20112;-83
2021/06/10 05:44:21;;;;;;;55.58;47.72;;;17.80;99.90;;;;;;5022246;28;20058;-81
2021/06/10 05:46:49;;;;;;;52.75;46.95;;;17.80;99.90;;;;;;5007296;28;20052;-85
2021/06/10 05:49:17;;;;;;;51.10;45.58;;;17.90;99.90;;;;;;4979189;28;20041;-83
2021/06/10 05:51:44;;;;;;;50.45;45.00;;;18.10;99.90;;;;;;4980355;28;20133;-85
2021/06/10 05:54:11;;;;;;;54.88;45.00;;;18.30;99.90;;;;;;4963905;28;20216;-83
2021/06/10 05:56:38;;;;;;;47.70;42.35;;;18.40;99.90;;;;;;4966187;28;20069;-82
2021/06/10 05:59:05;;;;;;;57.65;49.42;;;18.60;99.90;;;;;;4987373;28;20065;-85
2021/06/10 06:01:32;;;;;;;59.42;51.55;;;18.60;99.90;;;;;;5027436;28;20053;-82
2021/06/10 06:03:59;;;;;;;61.33;50.95;;;18.70;99.90;;;;;;4990601;28;20073;-85
2021/06/10 06:06:26;;;;;;;52.20;46.55;;;18.70;99.90;;;;;;4971257;28;20173;-84
2021/06/10 06:08:54;;;;;;;52.03;46.38;;;19.00;99.90;;;;;;4944066;28;20050;-82
2021/06/10 06:11:21;;;;;;;54.60;48.05;;;19.30;99.90;;;;;;4963733;28;20054;-84
2021/06/10 06:14:08;;;;;;;54.55;48.63;;;19.50;99.90;;;;;;4973084;28;20047;-84
2021/06/10 06:16:43;;;;;;;54.22;48.40;;;19.70;99.90;;;;;;4960994;28;20137;-84
2021/06/10 06:19:12;;;;;;;52.92;47.33;;;20.00;99.90;;;;;;4960192;28;20121;-85
2021/06/10 06:21:42;;;;;;;56.22;50.28;;;20.20;99.90;;;;;;4986295;28;20077;-84
2021/06/10 06:24:11;;;;;;;57.10;51.15;;;20.20;99.90;;;;;;4978307;28;20656;-85
2021/06/10 06:26:42;;;;;;;58.33;52.28;;;20.20;99.90;;;;;;4981081;28;20050;-85
2021/06/10 06:29:09;;;;;;;58.58;52.25;;;20.30;99.90;;;;;;4981397;28;20057;-84
2021/06/10 06:31:37;;;;;;;60.72;54.42;;;20.10;99.90;;;;;;4984583;28;20583;-85
2021/06/10 06:34:05;;;;;;;60.35;53.95;;;20.10;99.90;;;;;;4984628;28;20046;-85
2021/06/10 06:36:32;;;;;;;59.60;53.28;;;20.20;99.90;;;;;;4965581;28;20535;-85
2021/06/10 06:39:04;;;;;;;60.53;54.17;;;20.40;99.90;;;;;;4979709;28;20058;-82
2021/06/10 06:41:31;;;;;;;59.53;53.47;;;20.50;99.90;;;;;;4979891;28;20088;-83
2021/06/10 06:43:58;;;;;;;60.00;53.70;;;20.50;99.90;;;;;;5020550;28;20089;-84
2021/06/10 06:46:25;;;;;;;56.67;50.67;;;20.60;99.90;;;;;;4969959;28;20109;-83
2021/06/10 06:48:52;;;;;;;57.30;51.67;;;20.80;99.90;;;;;;4944051;28;20066;-80
2021/06/10 06:51:19;;;;;;;58.70;52.85;;;21.00;99.90;;;;;;4940642;28;20043;-81
2021/06/10 06:53:47;;;;;;;59.08;53.08;;;21.10;99.90;;;;;;4927407;28;20054;-84
2021/06/10 06:56:22;;;;;;;57.70;51.42;;;20.90;99.90;;;;;;4927316;28;20050;-82
2021/06/10 06:58:50;;;;;;;56.83;51.08;;;21.20;99.90;;;;;;4980926;28;20070;-82
2021/06/10 07:01:17;;;;;;;58.35;52.53;;;21.30;99.90;;;;;;4976145;28;20117;-81
2021/06/10 07:03:44;;;;;;;57.33;52.08;;;21.50;99.90;;;;;;4961419;28;20058;-83
2021/06/10 07:06:12;;;;;;;59.53;53.35;;;21.50;99.90;;;;;;4963539;28;20054;-79
2021/06/10 07:08:38;;;;;;;58.38;52.28;;;21.50;99.90;;;;;;4979015;28;20046;-82
2021/06/10 07:11:06;;;;;;;56.67;50.95;;;21.60;99.90;;;;;;4977996;28;20105;-81
2021/06/10 07:13:32;;;;;;;55.30;50.05;;;21.70;99.90;;;;;;4947305;28;20118;-79
2021/06/10 07:16:00;;;;;;;57.03;51.42;;;21.90;99.90;;;;;;4977182;28;20100;-83
2021/06/10 07:18:27;;;;;;;58.38;52.58;;;22.10;99.90;;;;;;4942585;28;20051;-81
2021/06/10 07:20:54;;;;;;;55.03;49.72;;;22.30;99.90;;;;;;4947353;28;20034;-80
2021/06/10 07:23:21;;;;;;;55.30;49.35;;;22.50;99.90;;;;;;4974563;28;20114;-81
2021/06/10 07:25:48;;;;;;;56.60;50.92;;;22.70;99.90;;;;;;4976962;28;20046;-81
2021/06/10 07:28:15;;;;;;;55.75;50.20;;;22.60;99.90;;;;;;4992509;28;20073;-81
2021/06/10 07:30:42;;;;;;;53.80;48.35;;;22.80;99.90;;;;;;4952435;28;20055;-81
2021/06/10 07:33:09;;;;;;;54.28;48.60;;;23.10;99.90;;;;;;4979360;28;20046;-82
2021/06/10 07:35:36;;;;;;;54.83;49.28;;;23.10;99.90;;;;;;4979316;28;20121;-83
2021/06/10 07:38:04;;;;;;;53.40;48.03;;;23.20;99.90;;;;;;4983035;28;20511;-81
2021/06/10 07:40:32;;;;;;;50.40;45.63;;;23.40;99.90;;;;;;4966893;28;20058;-82
2021/06/10 07:42:59;;;;;;;51.75;46.70;;;23.70;99.90;;;;;;4982992;28;20048;-82
2021/06/10 07:45:28;;;;;;;52.00;46.85;;;23.60;99.90;;;;;;4983577;28;20049;-81
2021/06/10 07:47:55;;;;;;;48.72;44.17;;;23.50;99.90;;;;;;4971043;28;20050;-81
2021/06/10 07:50:23;;;;;;;46.80;42.20;;;23.40;99.90;;;;;;4975255;28;20042;-79
2021/06/10 07:52:52;;;;;;;44.10;40.05;;;23.40;99.90;;;;;;4943971;28;20780;-81
2021/06/10 07:55:20;;;;;;;45.47;41.00;;;23.40;99.90;;;;;;4929869;28;20109;-82
2021/06/10 07:57:48;;;;;;;43.95;39.95;;;23.30;99.90;;;;;;4973220;28;20136;-81
2021/06/10 08:00:16;;;;;;;43.35;39.22;;;23.40;99.90;;;;;;4998043;28;20231;-81
2021/06/10 08:02:44;;;;;;;42.70;38.67;;;23.70;99.90;;;;;;5017859;28;20564;-82
2021/06/10 08:05:12;;;;;;;45.90;41.78;;;23.90;99.90;;;;;;4982998;28;20115;-84
2021/06/10 08:07:43;;;;;;;42.65;38.88;;;23.70;99.90;;;;;;4982596;28;20050;-81
2021/06/10 08:10:13;;;;;;;44.03;40.03;;;23.70;99.90;;;;;;4985158;28;20057;-82
2021/06/10 08:12:45;;;;;;;44.20;39.67;;;23.80;99.90;;;;;;4968792;28;20141;-81
2021/06/10 08:15:12;;;;;;;41.55;37.78;;;23.80;99.90;;;;;;4968814;28;20047;-83
2021/06/10 08:17:39;;;;;;;34.15;31.27;;;24.10;99.90;;;;;;4998994;28;20622;-79
2021/06/10 08:20:09;;;;;;;34.50;31.40;;;24.30;99.90;;;;;;5002917;28;20054;-81
2021/06/10 08:22:36;;;;;;;30.98;28.50;;;24.30;99.90;;;;;;4983041;28;20104;-81
2021/06/10 08:25:05;;;;;;;30.52;27.77;;;24.30;99.90;;;;;;4984890;28;20129;-81
2021/06/10 08:27:33;;;;;;;31.15;28.52;;;24.20;99.90;;;;;;4984428;28;20076;-81
2021/06/10 08:30:00;;;;;;;27.30;25.05;;;24.10;99.90;;;;;;4994777;28;20084;-82
2021/06/10 08:32:27;;;;;;;28.60;26.27;;;24.00;99.90;;;;;;4972105;28;20070;-82
2021/06/10 08:34:53;;;;;;;28.20;25.80;;;24.10;99.90;;;;;;4957335;28;20038;-80
2021/06/10 08:37:21;;;;;;;29.98;27.33;;;24.00;99.90;;;;;;4958149;28;20052;-79
2021/06/10 08:39:47;;;;;;;29.95;26.98;;;24.40;99.90;;;;;;4959599;28;20050;-81
2021/06/10 08:42:15;;;;;;;30.58;28.00;;;24.50;99.90;;;;;;4971833;28;20098;-81
2021/06/10 08:44:43;;;;;;;33.22;30.15;;;24.70;99.90;;;;;;4956486;28;20050;-78
2021/06/10 08:47:12;;;;;;;33.85;30.92;;;24.70;99.90;;;;;;4955618;28;20054;-82
2021/06/10 08:49:44;;;;;;;28.88;26.48;;;24.50;99.90;;;;;;4965194;28;20057;-82
2021/06/10 08:52:12;;;;;;;26.83;24.83;;;24.60;99.90;;;;;;4987986;28;20628;-82
2021/06/10 08:54:40;;;;;;;27.25;24.98;;;24.60;99.90;;;;;;4960055;28;20039;-80
2021/06/10 08:57:10;;;;;;;24.58;22.67;;;24.80;99.90;;;;;;4974801;28;20057;-81
2021/06/10 08:59:36;;;;;;;22.98;21.23;;;24.80;99.90;;;;;;4978058;28;20148;-80
2021/06/10 09:02:08;;;;;;;22.95;21.13;;;24.60;99.90;;;;;;4970106;28;20046;-81
2021/06/10 09:04:35;;;;;;;23.20;21.27;;;24.40;99.90;;;;;;4958157;28;20074;-81
2021/06/10 09:07:04;;;;;;;23.40;21.60;;;24.50;99.90;;;;;;4970515;28;20137;-79
2021/06/10 09:09:36;;;;;;;26.67;24.70;;;24.70;99.90;;;;;;4989278;28;20045;-82
2021/06/10 09:12:06;;;;;;;27.13;24.65;;;24.80;99.90;;;;;;4975790;28;20042;-79
2021/06/10 09:14:54;;;;;;;25.70;23.48;;;25.00;99.90;;;;;;4978145;28;20455;-81
2021/06/10 09:17:32;;;;;;;25.13;23.02;;;25.00;99.90;;;;;;4958358;28;20600;-80
2021/06/10 09:20:00;;;;;;;25.75;23.55;;;25.10;99.90;;;;;;4979251;28;20494;-81
2021/06/10 09:22:40;;;;;;;25.80;23.70;;;25.20;99.90;;;;;;4956364;28;20082;-81
2021/06/10 09:25:16;;;;;;;25.17;23.33;;;25.40;99.90;;;;;;4955582;28;20054;-80
2021/06/10 09:27:58;;;;;;;25.50;23.48;;;25.50;99.90;;;;;;4940858;28;20453;-82
2021/06/10 09:30:29;;;;;;;24.55;22.48;;;25.60;99.90;;;;;;4958146;28;20055;-85
2021/06/10 09:32:57;;;;;;;22.88;21.17;;;25.70;99.90;;;;;;4975810;28;20480;-81
2021/06/10 09:35:29;;;;;;;26.70;24.13;;;25.60;99.90;;;;;;4993263;28;20041;-81
2021/06/10 09:37:58;;;;;;;24.80;22.90;;;25.30;99.90;;;;;;4976340;28;20073;-81
2021/06/10 09:40:25;;;;;;;26.85;24.25;;;25.20;99.90;;;;;;4977147;28;20053;-82
2021/06/10 09:42:52;;;;;;;26.08;23.95;;;25.50;99.90;;;;;;4961452;28;20515;-82
2021/06/10 09:45:23;;;;;;;26.63;24.70;;;25.50;99.90;;;;;;4963322;28;20051;-79
2021/06/10 09:47:53;;;;;;;30.45;27.92;;;25.60;99.90;;;;;;4956726;28;20058;-83
2021/06/10 09:50:42;;;;;;;30.95;28.23;;;25.40;99.90;;;;;;4957376;28;20210;-81
2021/06/10 09:53:09;;;;;;;29.98;27.42;;;25.20;99.90;;;;;;4957404;28;20548;-79
2021/06/10 09:55:46;;;;;;;29.75;27.33;;;25.20;99.90;;;;;;4972741;28;20073;-81
2021/06/10 09:58:30;;;;;;;29.17;26.95;;;25.60;99.90;;;;;;4970990;28;20515;-80
2021/06/10 10:01:03;;;;;;;28.52;26.17;;;25.80;99.90;;;;;;4977024;28;20050;-80
2021/06/10 10:03:40;;;;;;;27.58;25.38;;;25.90;99.90;;;;;;4998083;28;20049;-84
2021/06/10 10:06:19;;;;;;;25.77;23.75;;;25.90;99.90;;;;;;4994457;28;20026;-80
2021/06/10 10:09:04;;;;;;;24.67;22.55;;;26.20;99.90;;;;;;4980791;28;20625;-81
2021/06/10 10:11:34;;;;;;;23.63;21.88;;;26.30;99.90;;;;;;5012241;28;20054;-81
2021/06/10 10:14:05;;;;;;;22.85;21.25;;;26.10;99.90;;;;;;4981583;28;20043;-84
2021/06/10 10:16:35;;;;;;;23.08;21.30;;;26.00;99.90;;;;;;4960946;28;20051;-81
2021/06/10 10:19:03;;;;;;;24.52;22.63;;;26.00;99.90;;;;;;4945538;28;20061;-83
2021/06/10 10:21:33;;;;;;;25.33;23.33;;;25.80;99.90;;;;;;4959919;28;20453;-83
2021/06/10 10:24:06;;;;;;;24.17;22.30;;;25.70;99.90;;;;;;4960372;28;20046;-81
2021/06/10 10:26:33;;;;;;;24.08;22.20;;;25.90;99.90;;;;;;4972626;28;20110;-83
2021/06/10 10:29:02;;;;;;;21.70;20.00;;;26.10;99.90;;;;;;4996695;28;20100;-82
2021/06/10 10:31:30;;;;;;;22.13;20.50;;;26.20;99.90;;;;;;4961975;28;20120;-83
2021/06/10 10:33:57;;;;;;;22.63;20.83;;;25.90;99.90;;;;;;5009259;28;20629;-80
2021/06/10 10:36:30;;;;;;;21.52;19.77;;;25.70;99.90;;;;;;5017812;28;20050;-78
2021/06/10 10:39:09;;;;;;;21.77;19.98;;;25.80;99.90;;;;;;5018396;28;20531;-80
2021/06/10 10:41:52;;;;;;;23.23;21.27;;;25.80;99.90;;;;;;4983650;28;20108;-82
2021/06/10 10:44:26;;;;;;;23.83;21.88;;;26.00;99.90;;;;;;4967859;28;20038;-80
2021/06/10 10:47:08;;;;;;;25.55;23.65;;;26.00;99.90;;;;;;4983834;28;20050;-81
2021/06/10 10:49:51;;;;;;;24.85;22.85;;;25.80;99.90;;;;;;4985777;28;20100;-80
2021/06/10 10:52:18;;;;;;;23.75;21.98;;;26.00;99.90;;;;;;4982293;28;20096;-82
2021/06/10 10:54:51;;;;;;;23.13;21.25;;;26.00;99.90;;;;;;5000796;28;20038;-81
2021/06/10 10:57:31;;;;;;;25.73;23.70;;;26.10;99.90;;;;;;4985004;28;20046;-82
2021/06/10 10:59:58;;;;;;;25.13;22.92;;;25.90;99.90;;;;;;4986328;28;20050;-80
2021/06/10 11:02:27;;;;;;;36.03;24.05;;;26.00;99.90;;;;;;4988038;28;20155;-81
2021/06/10 11:04:56;;;;;;;29.23;26.42;;;25.90;99.90;;;;;;4996494;28;20121;-80
2021/06/10 11:07:39;;;;;;;27.33;25.08;;;26.00;99.90;;;;;;4968187;28;20054;-79
2021/06/10 11:10:19;;;;;;;26.02;23.95;;;26.00;99.90;;;;;;4951660;28;20043;-83
2021/06/10 11:12:56;;;;;;;27.00;24.80;;;26.00;99.90;;;;;;5001004;28;20049;-82
2021/06/10 11:15:24;;;;;;;27.55;25.08;;;26.20;99.90;;;;;;4978936;28;20054;-80
2021/06/10 11:17:55;;;;;;;25.73;23.58;;;26.30;99.90;;;;;;4964773;28;20038;-81
2021/06/10 11:20:37;;;;;;;52.50;27.25;;;26.30;99.90;;;;;;4963353;28;20050;-82
2021/06/10 11:23:26;;;;;;;36.58;24.50;;;25.90;99.90;;;;;;5014677;28;20057;-82
2021/06/10 11:25:57;;;;;;;24.88;22.40;;;26.10;99.90;;;;;;4955753;28;20086;-82
2021/06/10 11:28:34;;;;;;;34.97;24.25;;;26.40;99.90;;;;;;4976513;28;20062;-79
2021/06/10 11:31:20;;;;;;;25.92;23.75;;;26.50;99.90;;;;;;4991090;28;20502;-80
2021/06/10 11:33:49;;;;;;;22.27;20.48;;;26.60;99.90;;;;;;4976649;28;20042;-80
2021/06/10 11:36:17;;;;;;;28.98;24.10;;;26.60;99.90;;;;;;4990669;28;20054;-81
2021/06/10 11:38:45;;;;;;;50.95;26.85;;;26.70;99.90;;;;;;5002248;28;20049;-80
2021/06/10 11:41:17;;;;;;;24.15;22.08;;;26.40;99.90;;;;;;4985065;28;20085;-82
2021/06/10 11:43:55;;;;;;;22.58;21.00;;;26.30;99.90;;;;;;4969018;28;20054;-82
2021/06/10 11:46:38;;;;;;;22.33;20.80;;;26.20;99.90;;;;;;4948190;28;20046;-80
2021/06/10 11:49:08;;;;;;;22.58;20.88;;;26.30;99.90;;;;;;4949056;28;20308;-82
2021/06/10 11:51:37;;;;;;;23.27;21.23;;;26.50;99.90;;;;;;4981031;28;20055;-82
2021/06/10 11:54:14;;;;;;;21.45;19.63;;;26.50;99.90;;;;;;4967789;28;20051;-83
2021/06/10 11:56:43;;;;;;;21.38;19.48;;;26.50;99.90;;;;;;4971968;28;20074;-81
2021/06/10 11:59:19;;;;;;;21.20;19.70;;;26.70;99.90;;;;;;4979027;28;20050;-83
2021/06/10 12:02:06;;;;;;;19.70;18.40;;;26.50;99.90;;;;;;4974890;28;20085;-80
2021/06/10 12:04:35;;;;;;;19.90;18.33;;;26.70;99.90;;;;;;4985731;28;20038;-78
2021/06/10 12:07:10;;;;;;;20.30;18.90;;;26.90;99.90;;;;;;4986399;28;20058;-83
2021/06/10 12:09:55;;;;;;;21.52;20.02;;;26.50;99.90;;;;;;4965986;28;20043;-79
2021/06/10 12:12:40;;;;;;;18.73;17.30;;;26.40;99.90;;;;;;4962947;28;20059;-81
2021/06/10 12:15:17;;;;;;;19.80;18.50;;;26.20;99.90;;;;;;4965442;28;20114;-81
2021/06/10 12:17:51;;;;;;;18.17;16.98;;;25.90;99.90;;;;;;4983686;28;20049;-81
2021/06/10 12:20:24;;;;;;;19.80;18.25;;;26.00;99.90;;;;;;4984570;28;20119;-82
2021/06/10 12:23:10;;;;;;;19.42;18.15;;;26.00;99.90;;;;;;4974555;28;20472;-82
2021/06/10 12:25:37;;;;;;;20.30;18.83;;;26.10;99.90;;;;;;4983073;28;20108;-82
2021/06/10 12:28:05;;;;;;;19.50;18.15;;;25.80;99.90;;;;;;4989385;28;20046;-80
2021/06/10 12:30:36;;;;;;;19.73;18.42;;;25.80;99.90;;;;;;4973970;28;20061;-81
2021/06/10 12:33:33;;;;;;;20.80;19.30;;;26.00;99.90;;;;;;4967437;28;20078;-80
2021/06/10 12:36:02;;;;;;;19.25;17.77;;;26.40;99.90;;;;;;4955811;28;20042;-79
2021/06/10 12:38:32;;;;;;;18.15;16.85;;;26.60;99.90;;;;;;4960458;28;20047;-82
2021/06/10 12:41:14;;;;;;;19.00;17.50;;;26.30;99.90;;;;;;4960831;28;20133;-81
2021/06/10 12:43:42;;;;;;;19.42;18.10;;;25.80;99.90;;;;;;4955032;28;20289;-80